createdAt,value
2018-04-18T00:00:34.284Z,13.68
2018-04-18T00:03:01.791Z,13.69
2018-04-18T00:05:29.311Z,13.74
2018-04-18T00:07:56.873Z,13.73
2018-04-18T00:10:24.383Z,13.73
2018-04-18T00:12:51.890Z,13.76
2018-04-18T00:15:19.392Z,13.79
2018-04-18T00:17:46.908Z,13.82
2018-04-18T00:20:14.419Z,13.77
2018-04-18T00:22:41.919Z,13.75
2018-04-18T00:25:09.428Z,13.79
2018-04-18T00:27:36.936Z,13.73
2018-04-18T00:30:05.431Z,13.71
2018-04-18T00:32:32.943Z,13.74
2018-04-18T00:37:33.207Z,13.74
2018-04-18T00:40:00.713Z,13.72
2018-04-18T00:42:28.259Z,13.67
2018-04-18T00:44:55.772Z,13.76
2018-04-18T00:47:23.283Z,13.74
2018-04-18T00:49:50.823Z,13.76
2018-04-18T00:52:18.333Z,13.81
2018-04-18T00:54:45.866Z,13.80
2018-04-18T00:57:13.391Z,13.79
2018-04-18T00:59:40.947Z,13.69
2018-04-18T01:02:08.455Z,13.68
2018-04-18T01:04:35.994Z,13.62
2018-04-18T01:07:03.499Z,13.55
2018-04-18T01:09:31.023Z,13.62
2018-04-18T01:11:58.543Z,13.63
2018-04-18T01:14:26.055Z,13.70
2018-04-18T01:16:53.567Z,13.69
2018-04-18T01:19:21.082Z,13.66
2018-04-18T01:21:48.591Z,13.62
2018-04-18T01:24:16.096Z,13.58
2018-04-18T01:26:43.603Z,13.60
2018-04-18T01:29:11.108Z,13.52
2018-04-18T01:31:38.611Z,13.44
2018-04-18T01:34:06.120Z,13.45
2018-04-18T01:36:33.627Z,13.44
2018-04-18T01:39:01.127Z,13.41
2018-04-18T01:41:28.672Z,13.44
2018-04-18T01:43:56.180Z,13.37
2018-04-18T01:46:23.692Z,13.31
2018-04-18T01:48:51.234Z,13.44
2018-04-18T01:51:18.735Z,13.42
2018-04-18T01:53:46.280Z,13.46
2018-04-18T01:56:13.778Z,13.32
2018-04-18T01:58:41.327Z,13.28
2018-04-18T02:01:08.882Z,13.27
2018-04-18T02:03:36.396Z,13.28
2018-04-18T02:06:03.946Z,13.27
2018-04-18T02:08:31.458Z,13.36
2018-04-18T02:10:58.964Z,13.38
2018-04-18T02:13:26.472Z,13.41
2018-04-18T02:15:53.987Z,13.42
2018-04-18T02:18:21.534Z,13.35
2018-04-18T02:20:49.075Z,13.35
2018-04-18T02:23:16.628Z,13.38
2018-04-18T02:25:44.134Z,13.41
2018-04-18T02:28:11.635Z,13.37
2018-04-18T02:30:39.254Z,13.21
2018-04-18T02:33:06.765Z,13.11
2018-04-18T02:35:34.324Z,12.94
2018-04-18T02:38:01.848Z,12.81
2018-04-18T02:40:29.363Z,12.85
2018-04-18T02:42:56.903Z,12.88
2018-04-18T02:45:24.413Z,12.57
2018-04-18T02:47:51.967Z,12.27
2018-04-18T02:50:19.479Z,12.18
2018-04-18T02:52:46.987Z,12.15
2018-04-18T02:55:14.509Z,12.01
2018-04-18T02:57:42.038Z,11.79
2018-04-18T03:00:09.598Z,11.76
2018-04-18T03:02:37.112Z,11.72
2018-04-18T03:05:04.629Z,11.53
2018-04-18T03:07:32.167Z,11.66
2018-04-18T03:09:59.678Z,11.74
2018-04-18T03:12:27.192Z,11.61
2018-04-18T03:14:54.736Z,11.49
2018-04-18T03:17:22.267Z,11.50
2018-04-18T03:19:49.799Z,11.62
2018-04-18T03:22:17.319Z,11.34
2018-04-18T03:24:44.819Z,11.33
2018-04-18T03:27:12.350Z,11.41
2018-04-18T03:29:39.918Z,11.36
2018-04-18T03:32:07.432Z,11.27
2018-04-18T03:34:34.935Z,11.39
2018-04-18T03:37:02.489Z,11.50
2018-04-18T03:39:30.106Z,11.51
2018-04-18T03:41:57.617Z,11.40
2018-04-18T03:44:25.129Z,11.38
2018-04-18T03:46:52.663Z,11.37
2018-04-18T03:49:20.172Z,11.34
2018-04-18T03:51:47.725Z,11.33
2018-04-18T03:54:15.308Z,11.32
2018-04-18T03:56:42.818Z,11.47
2018-04-18T03:59:10.360Z,11.58
2018-04-18T04:01:37.905Z,11.60
2018-04-18T04:04:05.414Z,11.69
2018-04-18T04:06:32.923Z,11.83
2018-04-18T04:09:00.424Z,11.84
2018-04-18T04:11:27.924Z,11.72
2018-04-18T04:13:55.472Z,11.80
2018-04-18T04:16:34.790Z,11.98
2018-04-18T04:19:14.199Z,12.03
2018-04-18T04:21:53.595Z,11.91
2018-04-18T04:24:33.767Z,12.29
2018-04-18T04:27:01.316Z,12.49
2018-04-18T04:29:28.827Z,12.23
2018-04-18T04:31:56.360Z,12.46
2018-04-18T04:34:23.879Z,12.91
2018-04-18T04:36:51.402Z,13.21
2018-04-18T04:39:18.995Z,13.53
2018-04-18T04:41:46.549Z,13.80
2018-04-18T04:44:14.067Z,13.88
2018-04-18T04:46:41.629Z,14.14
2018-04-18T04:49:09.176Z,14.42
2018-04-18T04:51:36.732Z,14.70
2018-04-18T04:54:04.248Z,14.72
2018-04-18T04:56:31.752Z,15.12
2018-04-18T04:58:59.251Z,15.30
2018-04-18T05:01:26.754Z,15.20
2018-04-18T05:03:54.262Z,15.38
2018-04-18T05:06:21.780Z,15.56
2018-04-18T05:08:49.328Z,15.81
2018-04-18T05:11:16.846Z,16.02
2018-04-18T05:13:44.411Z,15.84
2018-04-18T05:16:11.929Z,15.47
2018-04-18T05:18:39.479Z,15.90
2018-04-18T05:21:07.041Z,16.15
2018-04-18T05:23:34.556Z,16.12
2018-04-18T05:26:02.064Z,16.57
2018-04-18T05:28:29.579Z,17.08
2018-04-18T05:30:57.203Z,17.87
2018-04-18T05:33:24.679Z,17.34
2018-04-18T05:35:52.182Z,16.61
2018-04-18T05:38:19.688Z,16.01
2018-04-18T05:40:47.186Z,15.75
2018-04-18T05:43:14.741Z,15.42
2018-04-18T05:45:42.553Z,15.29
2018-04-18T05:50:36.907Z,16.34
2018-04-18T05:53:04.411Z,16.63
2018-04-18T05:55:31.958Z,16.94
2018-04-18T05:57:59.463Z,18.32
2018-04-18T06:00:27.012Z,19.11
2018-04-18T06:02:54.648Z,19.02
2018-04-18T06:05:22.150Z,18.11
2018-04-18T06:07:49.677Z,18.29
2018-04-18T06:10:17.183Z,18.23
2018-04-18T06:12:44.718Z,18.03
2018-04-18T06:15:12.242Z,17.15
2018-04-18T06:17:39.817Z,17.42
2018-04-18T06:20:07.356Z,17.96
2018-04-18T06:22:34.868Z,18.04
2018-04-18T06:25:02.378Z,18.16
2018-04-18T06:27:29.888Z,17.83
2018-04-18T06:29:57.408Z,17.78
2018-04-18T06:32:24.919Z,17.91
2018-04-18T06:34:52.428Z,18.46
2018-04-18T06:37:19.931Z,18.48
2018-04-18T06:39:47.447Z,19.14
2018-04-18T06:42:15.009Z,18.77
2018-04-18T06:44:42.535Z,18.44
2018-04-18T06:47:10.036Z,18.93
2018-04-18T06:49:37.546Z,18.97
2018-04-18T06:52:05.087Z,19.22
2018-04-18T06:54:32.598Z,19.45
2018-04-18T06:57:00.147Z,20.13
2018-04-18T06:59:27.647Z,19.45
2018-04-18T07:01:55.159Z,19.20
2018-04-18T07:04:22.661Z,19.07
2018-04-18T07:06:50.165Z,18.98
2018-04-18T07:09:17.715Z,19.30
2018-04-18T07:11:45.224Z,19.61
2018-04-18T07:14:12.783Z,19.03
2018-04-18T07:16:40.296Z,19.43
2018-04-18T07:19:07.810Z,19.62
2018-04-18T07:21:35.307Z,20.63
2018-04-18T07:24:02.816Z,21.39
2018-04-18T07:26:30.319Z,21.12
2018-04-18T07:28:57.831Z,20.99
2018-04-18T07:31:25.338Z,21.39
2018-04-18T07:33:52.837Z,22.24
2018-04-18T07:36:20.331Z,22.87
2018-04-18T07:38:47.850Z,23.00
2018-04-18T07:41:15.347Z,21.92
2018-04-18T07:43:42.850Z,21.40
2018-04-18T07:46:10.359Z,22.32
2018-04-18T07:48:37.882Z,23.87
2018-04-18T07:51:05.398Z,23.06
2018-04-18T07:53:32.902Z,21.29
2018-04-18T07:56:00.555Z,20.50
2018-04-18T07:58:28.089Z,20.47
2018-04-18T08:00:55.591Z,20.12
2018-04-18T08:03:23.136Z,19.03
2018-04-18T08:05:50.678Z,19.10
2018-04-18T08:08:18.188Z,19.46
2018-04-18T08:10:45.707Z,20.02
2018-04-18T08:13:13.207Z,20.16
2018-04-18T08:15:40.715Z,20.88
2018-04-18T08:18:08.215Z,22.37
2018-04-18T08:20:35.742Z,22.14
2018-04-18T08:23:03.251Z,21.79
2018-04-18T08:25:30.757Z,21.82
2018-04-18T08:27:58.265Z,22.15
2018-04-18T08:30:25.816Z,21.95
2018-04-18T08:32:53.333Z,21.15
2018-04-18T08:35:20.863Z,21.29
2018-04-18T08:37:48.372Z,21.47
2018-04-18T08:40:15.908Z,21.35
2018-04-18T08:42:43.454Z,21.38
2018-04-18T08:45:11.002Z,21.78
2018-04-18T08:47:38.503Z,21.71
2018-04-18T08:50:06.012Z,22.05
2018-04-18T08:52:33.528Z,22.35
2018-04-18T08:55:01.036Z,22.32
2018-04-18T08:57:28.540Z,23.06
2018-04-18T08:59:56.052Z,23.02
2018-04-18T09:02:23.563Z,23.49
2018-04-18T09:04:51.077Z,24.36
2018-04-18T09:07:18.581Z,24.87
2018-04-18T09:09:46.144Z,24.56
2018-04-18T09:12:13.672Z,25.32
2018-04-18T09:14:41.184Z,26.15
2018-04-18T09:17:08.707Z,26.96
2018-04-18T09:19:36.259Z,26.24
2018-04-18T09:22:03.776Z,26.72
2018-04-18T09:24:31.302Z,27.33
2018-04-18T09:26:58.863Z,26.62
2018-04-18T09:29:26.376Z,26.77
2018-04-18T09:31:53.866Z,26.51
2018-04-18T09:34:21.379Z,25.37
2018-04-18T09:36:48.949Z,25.88
2018-04-18T09:39:16.468Z,24.66
2018-04-18T09:41:43.976Z,24.80
2018-04-18T09:44:11.482Z,25.91
2018-04-18T09:46:38.988Z,26.75
2018-04-18T09:49:06.521Z,26.20
2018-04-18T09:51:34.048Z,26.23
2018-04-18T09:54:01.562Z,26.38
2018-04-18T09:56:29.108Z,25.83
2018-04-18T09:58:56.631Z,26.52
2018-04-18T10:01:29.665Z,26.94
2018-04-18T10:04:12.994Z,26.46
2018-04-18T10:06:40.498Z,25.67
2018-04-18T10:09:07.998Z,25.41
2018-04-18T10:11:35.539Z,24.04
2018-04-18T10:14:03.047Z,23.82
2018-04-18T10:16:30.543Z,24.33
2018-04-18T10:18:58.057Z,24.20
2018-04-18T10:21:25.563Z,24.69
2018-04-18T10:23:53.116Z,25.44
2018-04-18T10:26:20.623Z,26.25
2018-04-18T10:28:48.966Z,26.74
2018-04-18T10:31:16.506Z,26.31
2018-04-18T10:33:44.036Z,26.30
2018-04-18T10:36:11.599Z,26.46
2018-04-18T10:38:39.149Z,26.91
2018-04-18T10:41:06.692Z,26.85
2018-04-18T10:43:34.192Z,26.20
2018-04-18T10:46:01.749Z,27.33
2018-04-18T10:48:29.263Z,27.08
2018-04-18T10:50:56.840Z,27.08
2018-04-18T10:53:24.339Z,27.58
2018-04-18T10:55:51.882Z,25.84
2018-04-18T10:58:19.380Z,26.26
2018-04-18T11:00:46.939Z,26.13
2018-04-18T11:03:14.484Z,26.30
2018-04-18T11:05:42.045Z,26.25
2018-04-18T11:08:09.560Z,26.34
2018-04-18T11:10:37.103Z,27.64
2018-04-18T11:13:04.604Z,27.48
2018-04-18T11:15:32.460Z,27.62
2018-04-18T11:17:59.959Z,27.73
2018-04-18T11:20:27.466Z,27.61
2018-04-18T11:22:54.982Z,28.02
2018-04-18T11:25:22.499Z,27.86
2018-04-18T11:27:50.063Z,27.82
2018-04-18T11:30:17.628Z,27.98
2018-04-18T11:32:45.203Z,27.55
2018-04-18T11:35:12.721Z,27.16
2018-04-18T11:37:40.284Z,25.75
2018-04-18T11:40:07.784Z,25.42
2018-04-18T11:42:35.291Z,25.82
2018-04-18T11:45:02.799Z,26.18
2018-04-18T11:47:30.342Z,26.52
2018-04-18T11:49:57.899Z,26.93
2018-04-18T11:52:25.413Z,27.85
2018-04-18T11:54:52.968Z,27.46
2018-04-18T11:57:20.478Z,27.64
2018-04-18T11:59:48.004Z,27.01
2018-04-18T12:02:15.543Z,28.05
2018-04-18T12:04:43.029Z,27.97
2018-04-18T12:07:10.540Z,28.16
2018-04-18T12:09:38.103Z,28.87
2018-04-18T12:12:05.635Z,28.24
2018-04-18T12:14:33.141Z,27.34
2018-04-18T12:17:00.664Z,27.17
2018-04-18T12:19:28.172Z,26.64
2018-04-18T12:21:55.675Z,25.95
2018-04-18T12:24:23.262Z,26.37
2018-04-18T12:26:50.864Z,26.07
2018-04-18T12:29:18.367Z,26.84
2018-04-18T12:31:45.902Z,26.46
2018-04-18T12:34:13.411Z,26.68
2018-04-18T12:36:40.921Z,25.86
2018-04-18T12:39:08.433Z,25.43
2018-04-18T12:42:18.999Z,25.17
2018-04-18T12:44:46.512Z,25.47
2018-04-18T12:47:14.042Z,25.21
2018-04-18T12:49:41.581Z,24.91
2018-04-18T12:52:09.100Z,25.14
2018-04-18T12:54:36.615Z,25.61
2018-04-18T12:57:04.123Z,25.46
2018-04-18T12:59:31.659Z,25.67
2018-04-18T13:01:59.195Z,26.36
2018-04-18T13:04:26.769Z,26.22
2018-04-18T13:06:54.272Z,26.30
2018-04-18T13:09:21.779Z,24.89
2018-04-18T13:11:49.295Z,24.06
2018-04-18T13:14:16.806Z,24.84
2018-04-18T13:16:44.348Z,24.51
2018-04-18T13:19:11.875Z,24.64
2018-04-18T13:21:39.432Z,24.60
2018-04-18T13:24:06.935Z,24.73
2018-04-18T13:26:34.466Z,24.03
2018-04-18T13:29:02.013Z,23.84
2018-04-18T13:31:29.521Z,23.84
2018-04-18T13:33:57.028Z,23.44
2018-04-18T13:36:24.582Z,23.52
2018-04-18T13:38:52.127Z,23.70
2018-04-18T13:41:19.676Z,23.73
2018-04-18T13:43:47.198Z,23.72
2018-04-18T13:46:14.703Z,23.62
2018-04-18T13:48:42.246Z,23.64
2018-04-18T13:51:09.755Z,23.45
2018-04-18T13:53:37.304Z,23.41
2018-04-18T13:56:04.838Z,23.38
2018-04-18T13:58:32.368Z,23.53
2018-04-18T14:00:59.912Z,23.55
2018-04-18T14:03:27.412Z,23.61
2018-04-18T14:05:54.920Z,23.14
2018-04-18T14:08:22.439Z,23.50
2018-04-18T14:10:49.957Z,23.40
2018-04-18T14:13:17.500Z,23.46
2018-04-18T14:15:46.397Z,23.01
2018-04-18T14:18:13.902Z,23.12
2018-04-18T14:20:41.409Z,23.17
2018-04-18T14:23:08.964Z,23.25
2018-04-18T14:25:36.513Z,22.81
2018-04-18T14:28:04.088Z,22.97
2018-04-18T14:30:31.659Z,22.45
2018-04-18T14:32:59.177Z,22.37
2018-04-18T14:35:26.688Z,22.50
2018-04-18T14:37:54.324Z,22.61
2018-04-18T14:40:21.885Z,22.57
2018-04-18T14:42:49.393Z,22.30
2018-04-18T14:45:16.910Z,22.07
2018-04-18T14:47:44.480Z,22.06
2018-04-18T14:50:12.001Z,21.99
2018-04-18T14:52:39.506Z,21.96
2018-04-18T14:55:07.057Z,21.83
2018-04-18T14:57:34.554Z,21.82
2018-04-18T15:00:02.077Z,21.84
2018-04-18T15:02:29.612Z,21.69
2018-04-18T15:04:57.137Z,21.68
2018-04-18T15:07:24.641Z,21.54
2018-04-18T15:09:52.303Z,21.39
2018-04-18T15:12:19.803Z,21.26
2018-04-18T15:14:47.316Z,21.41
2018-04-18T15:17:14.875Z,21.17
2018-04-18T15:19:42.444Z,21.11
2018-04-18T15:22:09.951Z,21.12
2018-04-18T15:24:37.511Z,21.26
2018-04-18T15:27:05.028Z,21.30
2018-04-18T15:29:32.575Z,20.95
2018-04-18T15:32:00.136Z,20.72
2018-04-18T15:34:27.644Z,20.60
2018-04-18T15:36:55.255Z,20.53
2018-04-18T15:39:22.763Z,20.58
2018-04-18T15:41:50.329Z,20.40
2018-04-18T15:44:17.834Z,20.41
2018-04-18T15:46:45.351Z,20.17
2018-04-18T15:49:12.851Z,20.45
2018-04-18T15:51:40.367Z,20.20
2018-04-18T15:54:07.890Z,19.81
2018-04-18T15:56:35.396Z,19.94
2018-04-18T15:59:02.909Z,19.85
2018-04-18T16:01:30.416Z,19.65
2018-04-18T16:03:57.923Z,19.54
2018-04-18T16:06:25.436Z,19.52
2018-04-18T16:08:52.939Z,19.38
2018-04-18T16:11:20.444Z,19.52
2018-04-18T16:13:47.949Z,19.49
2018-04-18T16:16:15.495Z,19.42
2018-04-18T16:18:43.009Z,19.34
2018-04-18T16:21:10.510Z,19.34
2018-04-18T16:23:38.017Z,19.18
2018-04-18T16:26:05.536Z,19.27
2018-04-18T16:28:33.045Z,19.18
2018-04-18T16:31:00.583Z,19.22
2018-04-18T16:33:28.088Z,19.10
2018-04-18T16:35:55.665Z,18.94
2018-04-18T16:38:23.175Z,19.04
2018-04-18T16:40:51.437Z,19.11
2018-04-18T16:43:18.949Z,19.02
2018-04-18T16:45:46.487Z,19.07
2018-04-18T16:48:14.017Z,19.05
2018-04-18T16:50:41.564Z,19.00
2018-04-18T16:53:09.071Z,19.02
2018-04-18T16:55:36.582Z,19.05
2018-04-18T16:58:04.099Z,18.83
2018-04-18T17:00:31.659Z,18.62
2018-04-18T17:02:59.199Z,18.66
2018-04-18T17:05:26.698Z,18.72
2018-04-18T17:07:54.248Z,18.66
2018-04-18T17:10:21.814Z,18.60
2018-04-18T17:12:50.187Z,18.69
2018-04-18T17:15:17.695Z,18.83
2018-04-18T17:17:45.201Z,18.81
2018-04-18T17:20:12.718Z,18.85
2018-04-18T17:22:40.251Z,18.72
2018-04-18T17:25:07.788Z,18.81
2018-04-18T17:27:35.342Z,18.82
2018-04-18T17:30:04.256Z,18.83
2018-04-18T17:32:31.759Z,18.70
2018-04-18T17:34:59.266Z,18.69
2018-04-18T17:37:26.772Z,18.59
2018-04-18T17:39:54.303Z,18.53
2018-04-18T17:42:21.807Z,18.53
2018-04-18T17:44:49.350Z,18.50
2018-04-18T17:47:16.906Z,18.41
2018-04-18T17:49:44.467Z,18.40
2018-04-18T17:52:11.998Z,18.26
2018-04-18T17:54:39.552Z,18.28
2018-04-18T17:57:07.052Z,18.46
2018-04-18T17:59:34.603Z,18.46
2018-04-18T18:02:02.157Z,18.28
2018-04-18T18:04:29.674Z,18.38
2018-04-18T18:06:57.199Z,18.16
2018-04-18T18:09:25.616Z,18.25
2018-04-18T18:11:53.240Z,18.37
2018-04-18T18:14:20.765Z,18.18
2018-04-18T18:16:48.267Z,18.11
2018-04-18T18:19:15.775Z,17.88
2018-04-18T18:21:43.334Z,17.91
2018-04-18T18:24:10.846Z,17.72
2018-04-18T18:26:38.361Z,17.81
2018-04-18T18:29:05.881Z,17.95
2018-04-18T18:31:33.448Z,18.11
2018-04-18T18:34:00.927Z,18.15
2018-04-18T18:36:28.476Z,18.22
2018-04-18T18:38:56.904Z,18.22
2018-04-18T18:41:24.450Z,18.24
2018-04-18T18:43:51.962Z,18.28
2018-04-18T18:46:19.471Z,18.19
2018-04-18T18:48:46.991Z,17.89
2018-04-18T18:51:14.544Z,17.55
2018-04-18T18:53:42.074Z,17.53
2018-04-18T18:56:09.642Z,17.75
2018-04-18T18:58:37.164Z,17.64
2018-04-18T19:01:04.763Z,17.83
2018-04-18T19:03:32.276Z,17.77
2018-04-18T19:05:59.881Z,17.77
2018-04-18T19:08:27.445Z,17.86
2018-04-18T19:10:55.020Z,17.85
2018-04-18T19:13:22.532Z,17.72
2018-04-18T19:15:50.043Z,17.66
2018-04-18T19:18:17.551Z,17.62
2018-04-18T19:20:45.060Z,17.57
2018-04-18T19:23:12.615Z,17.49
2018-04-18T19:25:40.189Z,17.39
2018-04-18T19:28:07.713Z,17.39
2018-04-18T19:30:35.243Z,17.54
2018-04-18T19:33:02.764Z,17.52
2018-04-18T19:35:30.279Z,17.50
2018-04-18T19:37:57.790Z,17.59
2018-04-18T19:40:25.300Z,17.57
2018-04-18T19:42:52.823Z,17.60
2018-04-18T19:45:20.432Z,17.55
2018-04-18T19:47:47.983Z,17.59
2018-04-18T19:50:15.500Z,17.39
2018-04-18T19:52:43.011Z,17.36
2018-04-18T19:55:10.587Z,17.39
2018-04-18T19:57:38.097Z,17.36
2018-04-18T20:00:05.651Z,17.36
2018-04-18T20:02:33.157Z,17.38
2018-04-18T20:05:00.700Z,17.43
2018-04-18T20:07:28.199Z,17.35
2018-04-18T20:09:55.759Z,17.26
2018-04-18T20:12:23.285Z,17.22
2018-04-18T20:14:50.791Z,17.15
2018-04-18T20:17:18.295Z,16.98
2018-04-18T20:19:45.804Z,16.81
2018-04-18T20:22:13.348Z,16.97
2018-04-18T20:24:40.860Z,17.01
2018-04-18T20:27:08.392Z,16.96
2018-04-18T20:29:35.963Z,16.98
2018-04-18T20:32:03.556Z,16.99
2018-04-18T20:34:31.096Z,16.95
2018-04-18T20:36:58.626Z,16.85
2018-04-18T20:39:26.191Z,16.82
2018-04-18T20:41:55.614Z,16.76
2018-04-18T20:44:23.138Z,16.79
2018-04-18T20:46:50.700Z,16.64
2018-04-18T20:49:18.221Z,16.58
2018-04-18T20:51:45.771Z,16.56
2018-04-18T20:54:13.332Z,16.60
2018-04-18T20:56:40.925Z,16.61
2018-04-18T20:59:08.455Z,16.54
2018-04-18T21:01:36.034Z,16.51
2018-04-18T21:04:03.566Z,16.51
2018-04-18T21:06:31.112Z,16.50
2018-04-18T21:08:58.690Z,16.51
2018-04-18T21:11:26.218Z,16.46
2018-04-18T21:13:53.749Z,16.41
2018-04-18T21:16:21.325Z,16.30
2018-04-18T21:18:48.863Z,16.26
2018-04-18T21:21:16.395Z,16.21
2018-04-18T21:23:43.936Z,16.26
2018-04-18T21:26:11.507Z,16.30
2018-04-18T21:28:39.083Z,16.34
2018-04-18T21:31:06.659Z,16.31
2018-04-18T21:33:34.186Z,16.26
2018-04-18T21:36:01.750Z,16.15
2018-04-18T21:38:29.325Z,16.04
2018-04-18T21:40:56.969Z,16.01
2018-04-18T21:43:24.495Z,15.87
2018-04-18T21:45:52.032Z,15.95
2018-04-18T21:48:19.553Z,15.96
2018-04-18T21:53:13.911Z,15.87
2018-04-18T21:55:41.457Z,15.90
2018-04-18T21:58:08.986Z,15.88
2018-04-18T22:00:36.554Z,15.85
2018-04-18T22:03:04.082Z,15.83
2018-04-18T22:05:31.651Z,15.72
2018-04-18T22:07:59.181Z,15.73
2018-04-18T22:10:26.765Z,15.68
2018-04-18T22:12:54.292Z,15.56
2018-04-18T22:15:21.828Z,15.45
2018-04-18T22:17:49.362Z,15.39
2018-04-18T22:20:16.895Z,15.37
2018-04-18T22:22:44.463Z,15.33
2018-04-18T22:25:12.000Z,15.23
2018-04-18T22:27:39.530Z,15.28
2018-04-18T22:30:07.097Z,15.27
2018-04-18T22:32:34.635Z,15.35
2018-04-18T22:35:02.170Z,15.34
2018-04-18T22:37:29.701Z,15.31
2018-04-18T22:39:57.270Z,15.37
2018-04-18T22:42:24.794Z,15.39
2018-04-18T22:44:52.357Z,15.40
2018-04-18T22:47:19.889Z,15.45
2018-04-18T22:49:47.430Z,15.45
2018-04-18T22:52:15.005Z,15.42
2018-04-18T22:54:42.535Z,15.39
2018-04-18T22:57:10.103Z,15.45
2018-04-18T22:59:37.640Z,15.38
2018-04-18T23:02:05.168Z,15.35
2018-04-18T23:04:32.703Z,15.29
2018-04-18T23:07:00.228Z,15.28
2018-04-18T23:09:27.758Z,15.29
2018-04-18T23:11:55.284Z,15.25
2018-04-18T23:14:22.814Z,15.20
2018-04-18T23:16:50.346Z,15.22
2018-04-18T23:19:17.914Z,15.16
2018-04-18T23:21:45.441Z,15.20
2018-04-18T23:24:13.022Z,15.16
2018-04-18T23:26:40.558Z,15.14
2018-04-18T23:29:08.123Z,15.11
2018-04-18T23:31:35.654Z,15.07
2018-04-18T23:34:03.178Z,14.93
2018-04-18T23:36:30.702Z,15.06
2018-04-18T23:38:58.273Z,15.03
2018-04-18T23:41:25.798Z,15.02
2018-04-18T23:43:53.322Z,15.05
2018-04-18T23:46:20.849Z,15.06
2018-04-18T23:48:48.416Z,15.02
2018-04-18T23:51:15.946Z,15.02
2018-04-18T23:53:43.489Z,14.96
2018-04-18T23:56:11.015Z,14.93
2018-04-18T23:58:38.553Z,14.81
